Pakistan

Resources for Pakistan vACC

Active Sector File
Click here to access latest available sector file for Pakistan

VATSIM Metar for Pakistan
OPST 130800Z 00000KT 4000 FU SCT040 SCT100 34/24 Q1000 NOSIG RH56
OPMT 130830Z 00000KT 4000 HZ FEW100 37/24 Q0998 NOSIG
OPNH 130800Z 27006KT 4000 HZ SCT030 40/24 Q0997 NOISG
OPKC 130830Z 26010KT 5000 FU SCT020 BKN030 35/24 Q0999 NOSIG
OPLA 130825Z 21006KT 6000 FEW040 36/24 Q0999 RMK QFE972 RMK A29.52
OPSK 130800Z 09008KT 5000 HZ SCT200 37/27 Q0997 NOSIG
OPIS 130825Z 27008KT 7000 FEW040 37/20 Q1000 NOSIG
OPPS 130800Z 05008KT 6000 HZ FEW040 37/20 Q1000